createdAt,value
2019-04-22T00:01:28.622Z,98348.80
2019-04-22T00:04:06.118Z,98352.38
2019-04-22T00:06:59.811Z,98353.30
2019-04-22T00:09:31.080Z,98347.13
2019-04-22T00:12:07.680Z,98346.52
2019-04-22T00:14:36.604Z,98341.51
2019-04-22T00:17:16.664Z,98345.06
2019-04-22T00:19:52.385Z,98340.02
2019-04-22T00:22:23.871Z,98332.59
2019-04-22T00:25:01.122Z,98336.69
2019-04-22T00:27:39.174Z,98333.20
2019-04-22T00:30:07.930Z,98335.97
2019-04-22T00:32:58.917Z,98330.47
2019-04-22T00:35:33.295Z,98329.38
2019-04-22T00:38:11.147Z,98331.19
2019-04-22T00:40:42.435Z,98333.91
2019-04-22T00:43:13.588Z,98330.67
2019-04-22T00:48:44.562Z,98327.41
2019-04-22T00:51:22.491Z,98322.92
2019-04-22T00:53:36.074Z,98320.62
2019-04-22T00:56:16.754Z,98322.22
2019-04-22T00:58:45.121Z,98313.83
2019-04-22T01:01:20.254Z,98316.86
2019-04-22T01:04:04.261Z,98311.52
2019-04-22T01:06:26.437Z,98304.83
2019-04-22T01:09:04.345Z,98310.00
2019-04-22T01:11:33.643Z,98304.97
2019-04-22T01:14:06.541Z,98303.75
2019-04-22T01:16:43.096Z,98305.16
2019-04-22T01:19:23.525Z,98297.76
2019-04-22T01:21:52.469Z,98298.69
2019-04-22T01:24:24.767Z,98299.13
2019-04-22T01:26:56.452Z,98294.31
2019-04-22T01:29:22.795Z,98286.44
2019-04-22T01:31:45.634Z,98289.80
2019-04-22T01:34:33.617Z,98285.64
2019-04-22T01:37:11.292Z,98290.80
2019-04-22T01:39:49.785Z,98285.36
2019-04-22T01:42:24.504Z,98291.82
2019-04-22T01:44:59.035Z,98291.30
2019-04-22T01:47:36.322Z,98281.48
2019-04-22T01:50:06.228Z,98289.61
2019-04-22T01:52:44.725Z,98282.28
2019-04-22T01:55:17.807Z,98283.72
2019-04-22T01:57:50.030Z,98280.22
2019-04-22T02:00:12.567Z,98278.32
2019-04-22T02:03:01.117Z,98276.05
2019-04-22T02:05:28.669Z,98273.36
2019-04-22T02:08:04.437Z,98281.97
2019-04-22T02:10:44.344Z,98280.98
2019-04-22T02:13:15.434Z,98276.17
2019-04-22T02:15:47.847Z,98274.88
2019-04-22T02:18:27.712Z,98268.81
2019-04-22T02:20:48.857Z,98271.67
2019-04-22T02:26:09.439Z,98267.62
2019-04-22T02:34:09.648Z,98267.36
2019-04-22T02:36:30.097Z,98265.63
2019-04-22T02:41:35.041Z,98260.07
2019-04-22T02:49:18.865Z,98253.54
2019-04-22T02:51:44.416Z,98256.11
2019-04-22T02:56:53.019Z,98246.92
2019-04-22T02:59:36.968Z,98235.45
2019-04-22T03:02:07.608Z,98239.17
2019-04-22T03:04:39.398Z,98236.39
2019-04-22T03:07:03.714Z,98235.07
2019-04-22T03:09:51.773Z,98237.84
2019-04-22T03:14:51.742Z,98232.09
2019-04-22T03:17:30.864Z,98234.42
2019-04-22T03:25:42.281Z,98248.67
2019-04-22T03:45:30.184Z,98261.03
2019-04-22T03:48:33.129Z,98259.34
2019-04-22T03:50:39.426Z,98254.19
2019-04-22T03:53:21.209Z,98260.02
2019-04-22T03:55:59.698Z,98264.42
2019-04-22T03:58:28.274Z,98266.94
2019-04-22T04:01:11.053Z,98262.70
2019-04-22T04:03:39.448Z,98279.09
2019-04-22T04:06:06.867Z,98275.29
2019-04-22T04:08:39.142Z,98275.34
2019-04-22T04:11:24.619Z,98276.95
2019-04-22T04:14:05.469Z,98278.47
2019-04-22T04:16:35.009Z,98280.07
2019-04-22T04:19:07.820Z,98278.37
2019-04-22T04:24:25.854Z,98278.72
2019-04-22T04:27:06.746Z,98278.97
2019-04-22T04:32:09.359Z,98279.53
2019-04-22T04:34:43.825Z,98284.72
2019-04-22T04:37:15.090Z,98294.80
2019-04-22T04:39:36.423Z,98293.67
2019-04-22T04:42:14.410Z,98279.00
2019-04-22T04:44:58.650Z,98289.28
2019-04-22T04:47:25.836Z,98285.95
2019-04-22T04:49:54.428Z,98287.36
2019-04-22T04:52:39.302Z,98285.64
2019-04-22T04:57:33.731Z,98294.36
2019-04-22T05:00:31.942Z,98289.59
2019-04-22T05:05:14.517Z,98292.19
2019-04-22T05:15:27.614Z,98293.78
2019-04-22T05:18:06.101Z,98295.16
2019-04-22T05:22:59.430Z,98285.91
2019-04-22T05:25:31.975Z,98290.03
2019-04-22T05:28:11.880Z,98299.38
2019-04-22T05:30:42.440Z,98310.39
2019-04-22T05:33:22.853Z,98315.88
2019-04-22T05:35:56.332Z,98325.30
2019-04-22T05:38:33.210Z,98329.64
2019-04-22T05:40:56.495Z,98323.75
2019-04-22T05:43:38.562Z,98328.47
2019-04-22T05:46:05.712Z,98316.34
2019-04-22T05:51:24.273Z,98321.81
2019-04-22T05:53:48.157Z,98316.52
2019-04-22T05:56:28.702Z,98323.23
2019-04-22T05:58:58.313Z,98328.86
2019-04-22T06:01:38.922Z,98330.53
2019-04-22T06:04:05.375Z,98338.78
2019-04-22T06:06:37.095Z,98345.73
2019-04-22T06:09:10.714Z,98347.30
2019-04-22T06:11:42.825Z,98355.14
2019-04-22T06:14:15.280Z,98350.75
2019-04-22T06:16:57.167Z,98352.48
2019-04-22T06:19:33.223Z,98337.94
2019-04-22T06:22:04.286Z,98351.92
2019-04-22T06:24:43.690Z,98357.58
2019-04-22T06:27:21.797Z,98364.73
2019-04-22T06:29:41.759Z,98367.38
2019-04-22T06:32:26.291Z,98372.38
2019-04-22T06:35:00.428Z,98374.41
2019-04-22T06:37:59.770Z,98360.91
2019-04-22T06:39:59.167Z,98354.80
2019-04-22T06:42:36.546Z,98363.64
2019-04-22T06:45:12.107Z,98367.52
2019-04-22T06:50:28.407Z,98361.25
2019-04-22T06:52:57.186Z,98366.17
2019-04-22T06:55:33.244Z,98374.07
2019-04-22T06:58:01.539Z,98379.98
2019-04-22T07:00:36.937Z,98379.16
2019-04-22T07:03:28.591Z,98382.78
2019-04-22T07:05:57.006Z,98381.29
2019-04-22T07:08:39.335Z,98377.33
2019-04-22T07:13:29.924Z,98374.91
2019-04-22T07:16:00.341Z,98379.36
2019-04-22T07:23:46.045Z,98389.02
2019-04-22T07:28:50.659Z,98402.64
2019-04-22T07:31:24.876Z,98401.97
2019-04-22T07:33:58.214Z,98395.71
2019-04-22T07:36:45.694Z,98397.00
2019-04-22T07:39:04.003Z,98394.99
2019-04-22T07:41:42.991Z,98403.67
2019-04-22T07:44:17.672Z,98407.05
2019-04-22T07:46:56.525Z,98399.09
2019-04-22T07:49:26.638Z,98392.09
2019-04-22T07:51:57.683Z,98400.45
2019-04-22T07:54:38.217Z,98386.15
2019-04-22T07:57:17.939Z,98391.06
2019-04-22T07:59:40.859Z,98393.60
2019-04-22T08:02:21.691Z,98401.86
2019-04-22T08:05:03.804Z,98401.20
2019-04-22T08:07:24.109Z,98414.01
2019-04-22T08:10:09.175Z,98408.64
2019-04-22T08:12:36.091Z,98413.40
2019-04-22T08:15:06.068Z,98407.19
2019-04-22T08:20:19.026Z,98423.59
2019-04-22T08:22:52.166Z,98421.63
2019-04-22T08:25:20.386Z,98419.85
2019-04-22T08:27:57.275Z,98418.33
2019-04-22T08:30:34.885Z,98403.66
2019-04-22T08:33:13.781Z,98393.42
2019-04-22T08:35:53.861Z,98395.80
2019-04-22T08:38:11.429Z,98413.76
2019-04-22T08:41:16.425Z,98406.95
2019-04-22T08:46:25.574Z,98412.02
2019-04-22T08:51:25.450Z,98402.72
2019-04-22T08:54:13.683Z,98381.94
2019-04-22T08:56:37.609Z,98391.85
2019-04-22T08:59:07.941Z,98380.21
2019-04-22T09:01:37.687Z,98373.86
2019-04-22T09:04:27.881Z,98361.72
2019-04-22T09:07:07.505Z,98356.30
2019-04-22T09:09:21.286Z,98357.17
2019-04-22T09:12:00.208Z,98359.81
2019-04-22T09:14:34.252Z,98347.41
2019-04-22T09:17:04.095Z,98356.97
2019-04-22T09:19:38.571Z,98362.56
2019-04-22T09:22:15.978Z,98352.66
2019-04-22T09:24:45.982Z,98370.03
2019-04-22T09:27:24.681Z,98388.83
2019-04-22T09:29:55.529Z,98401.39
2019-04-22T09:32:31.706Z,98391.42
2019-04-22T09:34:58.924Z,98374.48
2019-04-22T09:42:43.730Z,98373.59
2019-04-22T09:45:15.145Z,98385.80
2019-04-22T09:47:56.870Z,98411.16
2019-04-22T09:55:29.811Z,98401.46
2019-04-22T09:58:04.511Z,98422.83
2019-04-22T10:00:45.844Z,98405.77
2019-04-22T10:03:17.855Z,98410.86
2019-04-22T10:05:52.479Z,98435.14
2019-04-22T10:08:38.389Z,98400.87
2019-04-22T10:10:58.007Z,98393.49
2019-04-22T10:13:34.539Z,98378.80
2019-04-22T10:16:02.968Z,98374.88
2019-04-22T10:18:43.715Z,98383.23
2019-04-22T10:21:16.572Z,98372.58
2019-04-22T10:23:45.836Z,98379.78
2019-04-22T10:26:22.306Z,98372.97
2019-04-22T10:31:32.873Z,98356.48
2019-04-22T10:33:53.723Z,98364.06
2019-04-22T10:36:11.293Z,98373.96
2019-04-22T10:38:44.544Z,98367.45
2019-04-22T10:41:16.748Z,98367.02
2019-04-22T10:43:48.952Z,98378.11
2019-04-22T10:46:22.475Z,98389.53
2019-04-22T10:48:54.687Z,98379.00
2019-04-22T10:51:26.886Z,98372.14
2019-04-22T10:53:59.717Z,98372.03
2019-04-22T10:56:34.845Z,98353.09
2019-04-22T10:59:06.918Z,98361.21
2019-04-22T11:01:42.384Z,98353.04
2019-04-22T11:04:15.277Z,98350.22
2019-04-22T11:06:53.068Z,98346.61
2019-04-22T11:09:23.489Z,98369.02
2019-04-22T11:12:02.082Z,98347.70
2019-04-22T11:14:28.736Z,98343.14
2019-04-22T11:17:03.398Z,98350.91
2019-04-22T11:19:35.354Z,98353.14
2019-04-22T11:22:15.204Z,98382.12
2019-04-22T11:24:41.203Z,98364.67
2019-04-22T11:27:14.755Z,98366.62
2019-04-22T11:29:47.720Z,98395.78
2019-04-22T11:32:20.421Z,98391.63
2019-04-22T11:34:53.599Z,98368.73
2019-04-22T11:37:25.984Z,98402.38
2019-04-22T11:40:06.890Z,98388.31
2019-04-22T11:42:32.280Z,98412.94
2019-04-22T11:45:05.580Z,98400.02
2019-04-22T11:47:39.251Z,98403.94
2019-04-22T11:50:12.933Z,98419.08
2019-04-22T11:52:45.043Z,98429.86
2019-04-22T11:55:17.453Z,98403.47
2019-04-22T11:57:49.972Z,98405.22
2019-04-22T12:00:30.556Z,98419.72
2019-04-22T12:03:03.239Z,98400.22
2019-04-22T12:05:35.556Z,98444.66
2019-04-22T12:08:09.335Z,98417.24
2019-04-22T12:10:49.484Z,98413.84
2019-04-22T12:13:15.878Z,98422.64
2019-04-22T12:15:49.106Z,98401.94
2019-04-22T12:18:22.879Z,98419.81
2019-04-22T12:20:55.356Z,98392.14
2019-04-22T12:23:27.441Z,98423.52
2019-04-22T12:26:04.229Z,98408.16
2019-04-22T12:28:33.321Z,98405.06
2019-04-22T12:31:05.761Z,98397.56
2019-04-22T12:33:39.185Z,98408.30
2019-04-22T12:36:12.670Z,98401.64
2019-04-22T12:38:45.370Z,98414.20
2019-04-22T12:41:18.029Z,98400.48
2019-04-22T12:43:51.606Z,98385.78
2019-04-22T12:46:24.071Z,98400.84
2019-04-22T12:48:58.258Z,98392.80
2019-04-22T12:51:31.364Z,98401.89
2019-04-22T12:54:03.629Z,98383.34
2019-04-22T12:56:35.766Z,98399.98
2019-04-22T12:59:07.844Z,98402.02
2019-04-22T13:01:39.839Z,98375.63
2019-04-22T13:04:15.536Z,98371.09
2019-04-22T13:06:46.101Z,98380.42
2019-04-22T13:09:19.539Z,98361.80
2019-04-22T13:11:52.957Z,98367.97
2019-04-22T13:14:25.159Z,98379.23
2019-04-22T13:16:57.776Z,98363.25
2019-04-22T13:19:30.268Z,98362.23
2019-04-22T13:22:02.928Z,98371.86
2019-04-22T13:24:36.146Z,98365.87
2019-04-22T13:27:10.862Z,98358.22
2019-04-22T13:29:43.453Z,98346.63
2019-04-22T13:32:16.554Z,98363.21
2019-04-22T13:34:53.320Z,98391.38
2019-04-22T13:37:23.255Z,98380.69
2019-04-22T13:39:56.844Z,98386.07
2019-04-22T13:42:30.123Z,98364.97
2019-04-22T13:45:04.048Z,98377.55
2019-04-22T13:47:54.692Z,98365.23
2019-04-22T13:50:54.484Z,98372.36
2019-04-22T13:53:30.379Z,98373.40
2019-04-22T13:55:48.174Z,98390.45
2019-04-22T13:58:09.727Z,98380.34
2019-04-22T14:00:32.406Z,98389.59
2019-04-22T14:03:26.755Z,98419.19
2019-04-22T14:05:58.883Z,98429.33
2019-04-22T14:08:31.333Z,98441.35
2019-04-22T14:11:13.195Z,98426.02
2019-04-22T14:13:37.749Z,98437.15
2019-04-22T14:16:11.015Z,98432.97
2019-04-22T14:18:45.954Z,98428.36
2019-04-22T14:21:17.110Z,98425.48
2019-04-22T14:23:49.124Z,98423.76
2019-04-22T14:26:23.059Z,98418.08
2019-04-22T14:28:55.732Z,98411.58
2019-04-22T14:31:28.808Z,98419.38
2019-04-22T14:34:05.142Z,98415.12
2019-04-22T14:36:35.310Z,98406.77
2019-04-22T14:39:10.322Z,98406.96
2019-04-22T14:41:57.570Z,98407.42
2019-04-22T14:45:16.926Z,98402.98
2019-04-22T14:47:17.618Z,98395.50
2019-04-22T14:49:47.319Z,98394.40
2019-04-22T14:52:21.487Z,98388.78
2019-04-22T14:54:45.938Z,98389.95
2019-04-22T14:57:07.446Z,98390.30
2019-04-22T14:59:39.894Z,98374.42
2019-04-22T15:02:13.936Z,98395.24
2019-04-22T15:04:46.143Z,98383.93
2019-04-22T15:07:19.185Z,98397.45
2019-04-22T15:09:52.265Z,98434.28
2019-04-22T15:12:31.263Z,98412.22
2019-04-22T15:14:59.737Z,98399.33
2019-04-22T15:17:38.852Z,98409.63
2019-04-22T15:20:19.631Z,98421.05
2019-04-22T15:22:53.084Z,98421.62
2019-04-22T15:25:28.300Z,98398.95
2019-04-22T15:28:01.521Z,98407.69
2019-04-22T15:30:35.139Z,98398.00
2019-04-22T15:33:07.485Z,98398.83
2019-04-22T15:35:41.042Z,98392.46
2019-04-22T15:38:13.290Z,98412.48
2019-04-22T15:40:45.269Z,98387.42
2019-04-22T15:43:17.387Z,98393.92
2019-04-22T15:45:50.780Z,98395.61
2019-04-22T15:48:23.255Z,98393.80
2019-04-22T15:50:55.341Z,98409.92
2019-04-22T15:53:27.659Z,98404.31
2019-04-22T15:56:00.802Z,98408.87
2019-04-22T15:58:33.553Z,98394.20
2019-04-22T16:01:12.977Z,98401.02
2019-04-22T16:03:40.661Z,98391.02
2019-04-22T16:06:12.794Z,98393.59
2019-04-22T16:08:45.793Z,98388.62
2019-04-22T16:11:18.192Z,98401.75
2019-04-22T16:13:52.488Z,98377.17
2019-04-22T16:16:24.846Z,98389.17
2019-04-22T16:18:58.453Z,98376.78
2019-04-22T16:21:40.543Z,98384.87
2019-04-22T16:24:28.143Z,98379.93
2019-04-22T16:27:06.554Z,98379.77
2019-04-22T16:29:39.271Z,98396.97
2019-04-22T16:32:11.550Z,98374.51
2019-04-22T16:34:43.540Z,98382.19
2019-04-22T16:37:16.758Z,98379.16
2019-04-22T16:39:50.477Z,98377.34
2019-04-22T16:42:30.220Z,98400.48
2019-04-22T16:44:57.587Z,98401.50
2019-04-22T16:47:31.363Z,98382.19
2019-04-22T16:50:03.787Z,98385.70
2019-04-22T16:52:36.291Z,98387.69
2019-04-22T16:55:10.599Z,98379.79
2019-04-22T16:57:44.113Z,98374.84
2019-04-22T17:00:18.570Z,98381.67
2019-04-22T17:03:06.652Z,98380.05
2019-04-22T17:06:05.367Z,98385.09
2019-04-22T17:08:38.915Z,98390.29
2019-04-22T17:11:11.764Z,98387.92
2019-04-22T17:13:44.619Z,98389.97
2019-04-22T17:16:18.036Z,98382.16
2019-04-22T17:18:50.394Z,98394.51
2019-04-22T17:21:23.612Z,98383.17
2019-04-22T17:23:56.987Z,98411.36
2019-04-22T17:26:30.360Z,98381.67
2019-04-22T17:29:06.216Z,98402.68
2019-04-22T17:31:40.194Z,98387.44
2019-04-22T17:34:13.410Z,98393.41
2019-04-22T17:36:46.238Z,98384.28
2019-04-22T17:39:32.962Z,98383.66
2019-04-22T17:42:11.192Z,98385.27
2019-04-22T17:44:49.810Z,98387.39
2019-04-22T17:47:31.765Z,98406.28
2019-04-22T17:50:11.740Z,98394.19
2019-04-22T17:52:42.659Z,98399.45
2019-04-22T17:55:21.379Z,98405.02
2019-04-22T17:57:49.502Z,98398.25
2019-04-22T18:00:25.449Z,98401.16
2019-04-22T18:02:54.748Z,98412.88
2019-04-22T18:05:22.180Z,98413.16
2019-04-22T18:08:11.710Z,98399.70
2019-04-22T18:10:40.627Z,98421.70
2019-04-22T18:13:30.399Z,98422.42
2019-04-22T18:15:54.768Z,98414.68
2019-04-22T18:18:33.213Z,98418.81
2019-04-22T18:20:56.343Z,98411.10
2019-04-22T18:23:20.835Z,98438.37
2019-04-22T18:26:05.332Z,98430.97
2019-04-22T18:28:43.530Z,98428.16
2019-04-22T18:31:12.125Z,98435.91
2019-04-22T18:33:47.923Z,98427.28
2019-04-22T18:36:19.282Z,98427.95
2019-04-22T18:39:06.267Z,98441.02
2019-04-22T18:41:30.355Z,98440.80
2019-04-22T18:44:04.382Z,98439.22
2019-04-22T18:46:36.879Z,98438.59
2019-04-22T18:49:12.400Z,98442.75
2019-04-22T18:51:51.393Z,98461.17
2019-04-22T18:54:36.015Z,98450.23
2019-04-22T18:57:13.779Z,98455.84
2019-04-22T18:59:33.657Z,98448.98
2019-04-22T19:02:07.805Z,98459.91
2019-04-22T19:04:47.262Z,98452.59
2019-04-22T19:07:36.873Z,98458.21
2019-04-22T19:10:10.616Z,98456.64
2019-04-22T19:12:48.806Z,98460.05
2019-04-22T19:15:19.063Z,98453.66
2019-04-22T19:17:54.386Z,98458.09
2019-04-22T19:20:29.622Z,98464.41
2019-04-22T19:22:57.514Z,98461.03
2019-04-22T19:25:24.058Z,98452.75
2019-04-22T19:28:14.180Z,98475.88
2019-04-22T19:30:41.515Z,98461.32
2019-04-22T19:33:11.214Z,98450.86
2019-04-22T19:35:40.434Z,98457.19
2019-04-22T19:38:12.186Z,98454.58
2019-04-22T19:41:03.044Z,98452.20
2019-04-22T19:43:28.639Z,98451.56
2019-04-22T19:45:58.914Z,98453.37
2019-04-22T19:48:39.697Z,98455.95
2019-04-22T19:51:34.016Z,98451.12
2019-04-22T19:53:46.696Z,98448.75
2019-04-22T19:56:11.707Z,98450.28
2019-04-22T19:58:47.697Z,98464.55
2019-04-22T20:01:49.508Z,98444.25
2019-04-22T20:04:46.301Z,98448.11
2019-04-22T20:07:12.733Z,98458.73
2019-04-22T20:09:55.139Z,98469.09
2019-04-22T20:12:21.382Z,98460.33
2019-04-22T20:14:54.477Z,98461.41
2019-04-22T20:17:40.944Z,98461.05
2019-04-22T20:20:09.664Z,98462.58
2019-04-22T20:22:37.245Z,98456.88
2019-04-22T20:25:05.425Z,98464.03
2019-04-22T20:27:54.655Z,98462.45
2019-04-22T20:30:28.271Z,98467.15
2019-04-22T20:32:56.666Z,98466.90
2019-04-22T20:35:32.757Z,98464.00
2019-04-22T20:38:10.736Z,98459.28
2019-04-22T20:40:41.424Z,98459.41
2019-04-22T20:43:22.061Z,98456.09
2019-04-22T20:45:47.950Z,98461.07
2019-04-22T20:48:07.980Z,98457.58
2019-04-22T20:50:54.142Z,98444.95
2019-04-22T20:53:30.180Z,98444.85
2019-04-22T20:56:08.926Z,98458.03
2019-04-22T20:58:42.823Z,98455.16
2019-04-22T21:00:59.863Z,98448.47
2019-04-22T21:03:32.980Z,98449.86
2019-04-22T21:06:13.073Z,98451.34
2019-04-22T21:08:57.984Z,98443.65
2019-04-22T21:11:27.805Z,98455.83
2019-04-22T21:13:55.993Z,98447.08
2019-04-22T21:16:32.822Z,98443.22
2019-04-22T21:19:11.735Z,98446.34
2019-04-22T21:21:47.025Z,98447.08
2019-04-22T21:24:09.274Z,98442.81
2019-04-22T21:26:43.777Z,98454.91
2019-04-22T21:29:17.276Z,98449.34
2019-04-22T21:31:57.850Z,98444.13
2019-04-22T21:34:32.293Z,98450.08
2019-04-22T21:37:15.984Z,98452.32
2019-04-22T21:39:40.229Z,98453.34
2019-04-22T21:42:11.820Z,98452.57
2019-04-22T21:44:45.570Z,98452.23
2019-04-22T21:47:28.698Z,98446.78
2019-04-22T21:50:19.682Z,98453.06
2019-04-22T21:52:34.575Z,98439.53
2019-04-22T21:55:14.488Z,98444.96
2019-04-22T21:58:02.546Z,98443.41
2019-04-22T22:00:43.223Z,98442.56
2019-04-22T22:03:15.403Z,98440.56
2019-04-22T22:05:35.497Z,98436.70
2019-04-22T22:08:23.436Z,98437.82
2019-04-22T22:10:54.758Z,98430.94
2019-04-22T22:13:29.355Z,98431.17
2019-04-22T22:16:00.137Z,98429.17
2019-04-22T22:18:30.325Z,98422.73
2019-04-22T22:21:28.365Z,98430.39
2019-04-22T22:23:45.646Z,98425.78
2019-04-22T22:26:09.800Z,98421.54
2019-04-22T22:31:33.194Z,98419.12
2019-04-22T22:34:04.119Z,98410.88
2019-04-22T22:36:23.786Z,98414.16
2019-04-22T22:39:00.701Z,98410.33
2019-04-22T22:41:18.412Z,98406.94
2019-04-22T22:43:53.107Z,98403.14
2019-04-22T22:46:34.169Z,98403.23
2019-04-22T22:49:23.337Z,98401.70
2019-04-22T22:52:11.871Z,98399.63
2019-04-22T22:54:33.074Z,98386.13
2019-04-22T22:57:01.963Z,98392.84
2019-04-22T22:59:33.186Z,98390.35
2019-04-22T23:02:08.090Z,98386.17
2019-04-22T23:04:48.753Z,98379.66
2019-04-22T23:07:25.613Z,98380.16
2019-04-22T23:09:49.011Z,98383.09
2019-04-22T23:14:57.613Z,98376.86
2019-04-22T23:17:16.666Z,98375.16
2019-04-22T23:19:50.357Z,98378.40
2019-04-22T23:22:28.385Z,98367.55
2019-04-22T23:25:16.035Z,98373.39
2019-04-22T23:27:46.537Z,98365.75
2019-04-22T23:30:33.872Z,98357.01
2019-04-22T23:33:09.895Z,98348.23
2019-04-22T23:36:03.737Z,98347.92
2019-04-22T23:38:53.696Z,98345.05
2019-04-22T23:41:47.632Z,98345.20
2019-04-22T23:44:13.858Z,98347.91
2019-04-22T23:46:52.249Z,98347.64
2019-04-22T23:49:25.329Z,98349.43
2019-04-22T23:52:13.050Z,98343.80
2019-04-22T23:54:43.588Z,98347.44
2019-04-22T23:57:15.447Z,98347.50
